Time;durP1;ratioP1;P1;durP2;ratioP2;P2;SDS_P1;SDS_P2;PMS_P1;PMS_P2;Temp;Humidity;BMP_temperature;BMP_pressure;BME280_temperature;BME280_humidity;BME280_pressure;Samples;Min_cycle;Max_cycle;Signal;HPM_P1;HPM_P2
2022/12/11 00:01:18;;;;;;;34.42;18.48;;;-2.60;99.90;;;;;;5095893;28;20023;-69
2022/12/11 00:03:45;;;;;;;38.85;19.92;;;-2.70;99.90;;;;;;5099196;28;20020;-69
2022/12/11 00:06:13;;;;;;;35.33;19.85;;;-2.70;99.90;;;;;;5098548;28;20024;-69
2022/12/11 00:08:39;;;;;;;38.92;21.05;;;-2.80;99.90;;;;;;5097575;28;20043;-69
2022/12/11 00:11:08;;;;;;;38.95;21.45;;;-2.90;99.90;;;;;;5098006;28;20028;-69
2022/12/11 00:13:34;;;;;;;36.72;19.73;;;-3.00;99.90;;;;;;5100048;28;20031;-70
2022/12/11 00:16:00;;;;;;;41.80;20.15;;;-3.10;99.90;;;;;;5097882;28;20107;-70
2022/12/11 00:18:25;;;;;;;40.72;21.05;;;-3.10;99.90;;;;;;5095294;28;20110;-69
2022/12/11 00:20:51;;;;;;;38.67;19.98;;;-3.20;99.90;;;;;;5083670;28;20030;-69
2022/12/11 00:23:17;;;;;;;41.60;20.45;;;-3.20;99.90;;;;;;5084723;28;20380;-70
2022/12/11 00:25:44;;;;;;;38.25;20.25;;;-3.20;99.90;;;;;;5103342;28;20035;-70
2022/12/11 00:28:17;;;;;;;38.45;20.90;;;-3.10;99.90;;;;;;5104122;28;20084;-69
2022/12/11 00:30:44;;;;;;;46.72;23.08;;;-3.10;99.90;;;;;;5103819;28;20024;-70
2022/12/11 00:33:10;;;;;;;40.13;22.02;;;-3.10;99.90;;;;;;5105952;28;20032;-69
2022/12/11 00:35:44;;;;;;;44.10;23.52;;;-3.00;99.90;;;;;;5106256;28;20036;-70
2022/12/11 00:38:19;;;;;;;41.22;22.83;;;-2.80;99.90;;;;;;5103039;28;20019;-70
2022/12/11 00:40:45;;;;;;;40.90;22.20;;;-2.70;99.90;;;;;;5108147;28;20027;-70
2022/12/11 00:43:11;;;;;;;40.85;21.73;;;-2.60;99.90;;;;;;5108861;28;20099;-69
2022/12/11 00:45:39;;;;;;;40.53;20.42;;;-2.60;99.90;;;;;;5107957;28;20115;-70
2022/12/11 00:48:05;;;;;;;40.30;20.80;;;-2.50;99.90;;;;;;5108634;28;20039;-70
2022/12/11 00:50:31;;;;;;;41.30;20.45;;;-2.40;99.90;;;;;;5102291;27;20022;-70
2022/12/11 00:52:56;;;;;;;42.80;21.08;;;-2.40;99.90;;;;;;5107750;28;20088;-70
2022/12/11 00:55:22;;;;;;;40.50;21.27;;;-2.40;99.90;;;;;;5102921;28;20232;-71
2022/12/11 00:57:50;;;;;;;38.20;20.33;;;-2.30;99.90;;;;;;5103790;28;20031;-70
2022/12/11 01:00:16;;;;;;;33.17;18.02;;;-2.30;99.90;;;;;;5093185;28;20102;-70
2022/12/11 01:02:42;;;;;;;38.13;20.23;;;-2.20;99.90;;;;;;5094226;28;20143;-70
2022/12/11 01:05:09;;;;;;;35.33;20.50;;;-2.10;99.90;;;;;;5108844;28;20039;-70
2022/12/11 01:07:34;;;;;;;36.55;21.33;;;-2.10;99.90;;;;;;5109915;28;20024;-70
2022/12/11 01:10:24;;;;;;;39.50;21.85;;;-2.10;99.90;;;;;;5098953;28;20529;-72
2022/12/11 01:12:58;;;;;;;37.47;21.00;;;-2.10;99.90;;;;;;5114000;28;20023;-71
2022/12/11 01:15:27;;;;;;;37.08;21.17;;;-2.00;99.90;;;;;;5100935;28;20044;-71
2022/12/11 01:17:54;;;;;;;41.88;21.80;;;-2.00;99.90;;;;;;5101499;28;20038;-71
2022/12/11 01:20:21;;;;;;;41.55;21.75;;;-1.90;99.90;;;;;;5113450;28;20529;-71
2022/12/11 01:22:47;;;;;;;37.20;21.30;;;-1.90;99.90;;;;;;5114184;28;20027;-71
2022/12/11 01:25:13;;;;;;;40.13;22.52;;;-1.90;99.90;;;;;;5088539;28;20434;-71
2022/12/11 01:27:38;;;;;;;41.40;23.35;;;-1.90;99.90;;;;;;5105006;28;20079;-71
2022/12/11 01:30:06;;;;;;;43.55;23.92;;;-1.80;99.90;;;;;;5099166;28;20070;-71
2022/12/11 01:32:32;;;;;;;46.20;24.02;;;-1.80;99.90;;;;;;5102828;28;20032;-70
2022/12/11 01:34:58;;;;;;;48.28;25.88;;;-1.80;99.90;;;;;;5075307;28;20469;-71
2022/12/11 01:37:24;;;;;;;44.60;24.38;;;-1.70;99.90;;;;;;5111332;28;20034;-72
2022/12/11 01:39:49;;;;;;;45.20;25.70;;;-1.70;99.90;;;;;;5101148;28;20043;-72
2022/12/11 01:42:18;;;;;;;41.80;23.63;;;-1.70;99.90;;;;;;5102795;27;20043;-71
2022/12/11 01:44:43;;;;;;;43.05;22.80;;;-1.70;99.90;;;;;;5105937;28;20039;-71
2022/12/11 01:47:09;;;;;;;44.53;24.08;;;-1.70;99.90;;;;;;5101713;28;20032;-71
2022/12/11 01:49:38;;;;;;;42.65;22.73;;;-1.60;99.90;;;;;;5094492;28;20107;-71
2022/12/11 01:52:21;;;;;;;48.08;24.73;;;-1.60;99.90;;;;;;5113562;28;20055;-72
2022/12/11 01:54:47;;;;;;;39.95;22.25;;;-1.60;99.90;;;;;;5110830;28;20046;-71
2022/12/11 01:57:14;;;;;;;38.55;21.73;;;-1.50;99.90;;;;;;5097396;28;20054;-71
2022/12/11 01:59:43;;;;;;;41.28;23.52;;;-1.50;99.90;;;;;;5098563;28;20082;-71
2022/12/11 02:02:23;;;;;;;41.88;23.15;;;-1.40;99.90;;;;;;5113000;28;20122;-71
2022/12/11 02:04:49;;;;;;;42.00;23.08;;;-1.40;99.90;;;;;;5107850;28;20183;-72
2022/12/11 02:07:15;;;;;;;42.90;22.40;;;-1.50;99.90;;;;;;5092082;28;20177;-71
2022/12/11 02:09:43;;;;;;;39.00;21.70;;;-1.50;99.90;;;;;;5103719;28;20054;-72
2022/12/11 02:12:20;;;;;;;39.00;22.05;;;-1.50;99.90;;;;;;5112503;28;20468;-71
2022/12/11 02:15:02;;;;;;;39.00;20.90;;;-1.40;99.90;;;;;;5105774;28;20042;-71
2022/12/11 02:17:39;;;;;;;43.47;22.27;;;-1.40;99.90;;;;;;5107182;28;20041;-70
2022/12/11 02:20:16;;;;;;;42.75;22.30;;;-1.40;99.90;;;;;;5092571;28;20594;-71
2022/12/11 02:22:57;;;;;;;40.78;21.98;;;-1.40;99.90;;;;;;5092657;28;20024;-71
2022/12/11 02:25:49;;;;;;;38.35;20.80;;;-1.50;99.90;;;;;;5107073;28;20035;-71
2022/12/11 02:28:30;;;;;;;38.88;21.55;;;-1.40;99.90;;;;;;5100974;28;20056;-71
2022/12/11 02:31:09;;;;;;;36.80;19.65;;;-1.40;99.90;;;;;;5094081;28;20039;-71
2022/12/11 02:33:57;;;;;;;30.80;17.13;;;-1.30;99.90;;;;;;5093528;28;20024;-71
2022/12/11 02:36:25;;;;;;;29.80;16.13;;;-1.30;99.90;;;;;;5091525;28;20030;-71
2022/12/11 02:38:53;;;;;;;27.10;15.52;;;-1.30;99.90;;;;;;5096254;28;20449;-71
2022/12/11 02:41:21;;;;;;;29.80;16.23;;;-1.30;99.90;;;;;;5111261;28;20099;-70
2022/12/11 02:43:48;;;;;;;22.83;13.93;;;-1.30;99.90;;;;;;5112027;28;20024;-71
2022/12/11 02:46:16;;;;;;;25.20;14.15;;;-1.30;99.90;;;;;;5106279;28;20074;-71
2022/12/11 02:48:44;;;;;;;17.80;10.82;;;-1.30;99.90;;;;;;5103868;28;20401;-71
2022/12/11 02:51:13;;;;;;;16.08;9.82;;;-1.20;99.90;;;;;;5076588;28;20028;-71
2022/12/11 02:53:41;;;;;;;17.40;10.73;;;-1.10;99.90;;;;;;5092447;28;20036;-71
2022/12/11 02:56:12;;;;;;;20.30;11.23;;;-1.10;99.90;;;;;;5083514;28;20350;-71
2022/12/11 02:58:45;;;;;;;19.10;11.65;;;-1.10;99.90;;;;;;5098407;28;20031;-71
2022/12/11 03:01:11;;;;;;;20.38;11.23;;;-1.10;99.90;;;;;;5091266;28;20063;-72
2022/12/11 03:03:37;;;;;;;19.17;11.07;;;-1.00;99.90;;;;;;5095642;28;20032;-71
2022/12/11 03:06:02;;;;;;;20.13;11.70;;;-1.00;99.90;;;;;;5089581;28;20493;-71
2022/12/11 03:08:28;;;;;;;21.98;12.68;;;-1.00;99.90;;;;;;5096178;28;20039;-71
2022/12/11 03:10:54;;;;;;;24.60;13.38;;;-0.90;99.90;;;;;;5112353;28;20080;-71
2022/12/11 03:13:21;;;;;;;24.88;12.93;;;-0.90;99.90;;;;;;5101805;28;20024;-71
2022/12/11 03:16:11;;;;;;;20.73;12.60;;;-0.90;99.90;;;;;;5106995;28;20106;-72
2022/12/11 03:19:12;;;;;;;;;;;-1.00;99.90;;;;;;5103705;28;20118;-71
2022/12/11 03:21:51;;;;;;;22.48;11.98;;;-1.00;99.90;;;;;;5018662;28;19913;-72
2022/12/11 03:24:27;;;;;;;22.98;12.88;;;-1.10;99.90;;;;;;5084393;28;20032;-71
2022/12/11 03:26:57;;;;;;;21.52;12.90;;;-1.10;99.90;;;;;;5090570;28;20138;-71
2022/12/11 03:29:30;;;;;;;24.33;13.35;;;-1.10;99.90;;;;;;5090807;28;20024;-71
2022/12/11 03:32:03;;;;;;;22.58;13.70;;;-1.20;99.90;;;;;;5095497;28;20408;-71
2022/12/11 03:35:05;;;;;;;21.15;12.43;;;-1.20;99.90;;;;;;5093650;28;20027;-71
2022/12/11 03:37:34;;;;;;;24.00;13.35;;;-1.20;99.90;;;;;;5072364;28;20040;-71
2022/12/11 03:40:06;;;;;;;27.58;14.65;;;-1.20;99.90;;;;;;5091688;28;20070;-70
2022/12/11 03:42:33;;;;;;;24.63;13.48;;;-1.20;99.90;;;;;;5098679;28;20507;-71
2022/12/11 03:45:00;;;;;;;23.23;13.18;;;-1.20;99.90;;;;;;5100788;28;20392;-71
2022/12/11 03:47:28;;;;;;;24.63;14.48;;;-1.20;99.90;;;;;;5090024;28;20479;-70
2022/12/11 03:49:57;;;;;;;27.45;15.10;;;-1.20;99.90;;;;;;5091690;28;20457;-70
2022/12/11 03:52:26;;;;;;;25.33;14.50;;;-1.30;99.90;;;;;;5090711;28;20039;-71
2022/12/11 03:54:53;;;;;;;25.77;14.05;;;-1.30;99.90;;;;;;5104007;28;20032;-71
2022/12/11 03:57:23;;;;;;;23.40;14.60;;;-1.30;99.90;;;;;;5106819;28;20030;-70
2022/12/11 03:59:49;;;;;;;27.48;14.73;;;-1.30;99.90;;;;;;5098284;28;20032;-71
2022/12/11 04:02:15;;;;;;;25.42;14.95;;;-1.30;99.90;;;;;;5110240;28;20046;-71
2022/12/11 04:04:41;;;;;;;26.17;14.93;;;-1.30;99.90;;;;;;5110823;28;20020;-71
2022/12/11 04:07:08;;;;;;;23.45;13.85;;;-1.30;99.90;;;;;;5111122;28;20107;-71
2022/12/11 04:09:34;;;;;;;26.73;14.85;;;-1.40;99.90;;;;;;5106426;28;20040;-70
2022/12/11 04:11:59;;;;;;;27.73;15.27;;;-1.40;99.90;;;;;;5100727;28;20046;-71
2022/12/11 04:17:09;;;;;;;31.00;16.88;;;-1.50;99.90;;;;;;5107383;28;20442;-71
2022/12/11 04:25:06;;;;;;;26.05;14.25;;;-1.50;99.90;;;;;;5103122;28;20031;-71
2022/12/11 04:27:50;;;;;;;25.77;14.25;;;-1.50;99.90;;;;;;5095004;28;20355;-70
2022/12/11 04:30:21;;;;;;;24.55;13.50;;;-1.50;99.90;;;;;;5091282;28;20039;-71
2022/12/11 04:32:48;;;;;;;22.40;13.68;;;-1.50;99.90;;;;;;5103596;28;20032;-70
2022/12/11 04:35:14;;;;;;;23.63;12.82;;;-1.50;99.90;;;;;;5097382;28;20530;-70
2022/12/11 04:37:40;;;;;;;21.88;12.88;;;-1.50;99.90;;;;;;5102399;28;20381;-71
2022/12/11 04:40:10;;;;;;;21.95;12.35;;;-1.40;99.90;;;;;;5090684;28;20054;-71
2022/12/11 04:42:36;;;;;;;21.65;12.55;;;-1.40;99.90;;;;;;5092848;28;20043;-72
2022/12/11 04:45:02;;;;;;;22.92;12.52;;;-1.40;99.90;;;;;;5102635;28;20027;-71
2022/12/11 04:47:28;;;;;;;23.15;13.15;;;-1.40;99.90;;;;;;5071270;28;20066;-70
2022/12/11 04:49:53;;;;;;;22.35;12.68;;;-1.40;99.90;;;;;;5089534;28;20028;-70
2022/12/11 04:52:19;;;;;;;21.20;12.27;;;-1.40;99.90;;;;;;5089352;28;20110;-70
2022/12/11 04:54:45;;;;;;;20.52;11.93;;;-1.40;99.90;;;;;;5090857;28;20040;-71
2022/12/11 04:57:11;;;;;;;23.02;11.85;;;-1.40;99.90;;;;;;5094829;28;20023;-71
2022/12/11 04:59:37;;;;;;;26.10;12.32;;;-1.40;99.90;;;;;;5091914;28;20036;-71
2022/12/11 05:02:03;;;;;;;19.83;11.48;;;-1.30;99.90;;;;;;5110453;28;20089;-71
2022/12/11 05:04:33;;;;;;;21.75;11.98;;;-1.30;99.90;;;;;;5107999;28;20030;-71
2022/12/11 05:06:58;;;;;;;;;;;-1.20;99.90;;;;;;5094412;28;20043;-71
2022/12/11 05:09:25;;;;;;;23.08;10.60;;;-1.20;99.90;;;;;;5093125;28;19916;-70
2022/12/11 05:11:51;;;;;;;19.63;11.55;;;-1.20;99.90;;;;;;5093889;28;20027;-71
2022/12/11 05:14:17;;;;;;;19.60;11.02;;;-1.20;99.90;;;;;;5093370;28;20032;-70
2022/12/11 05:16:42;;;;;;;19.17;11.43;;;-1.20;99.90;;;;;;5102587;28;20107;-72
2022/12/11 05:19:08;;;;;;;19.30;10.73;;;-1.10;99.90;;;;;;5098552;28;20116;-70
2022/12/11 05:21:34;;;;;;;19.52;11.45;;;-1.20;99.90;;;;;;5093134;28;20047;-71
2022/12/11 05:23:59;;;;;;;17.10;9.98;;;-1.30;99.90;;;;;;5098278;28;20031;-71
2022/12/11 05:26:25;;;;;;;19.20;10.60;;;-1.30;99.90;;;;;;5097205;28;20111;-70
2022/12/11 05:28:53;;;;;;;19.67;11.15;;;-1.30;99.90;;;;;;5075368;28;20496;-71
2022/12/11 05:31:24;;;;;;;19.25;11.43;;;-1.40;99.90;;;;;;5092430;28;20483;-71
2022/12/11 05:33:51;;;;;;;19.40;10.77;;;-1.50;99.90;;;;;;5107164;28;20036;-71
2022/12/11 05:36:25;;;;;;;23.30;11.85;;;-1.60;99.90;;;;;;5112836;28;20098;-71
2022/12/11 05:38:51;;;;;;;23.17;12.40;;;-1.60;99.90;;;;;;5096050;28;20035;-73
2022/12/11 05:41:19;;;;;;;20.77;12.20;;;-1.70;99.90;;;;;;5092327;28;20495;-70
2022/12/11 05:43:46;;;;;;;24.60;12.23;;;-1.80;99.90;;;;;;5111013;28;20356;-70
2022/12/11 05:46:23;;;;;;;22.50;11.75;;;-1.80;99.90;;;;;;5106375;28;20047;-70
2022/12/11 05:48:51;;;;;;;21.77;12.82;;;-1.90;99.90;;;;;;5094118;28;20089;-71
2022/12/11 05:51:17;;;;;;;24.02;13.57;;;-2.00;99.90;;;;;;5106163;28;20098;-71
2022/12/11 05:53:44;;;;;;;24.75;12.85;;;-2.10;99.90;;;;;;5113645;28;20024;-70
2022/12/11 05:56:16;;;;;;;23.35;12.90;;;-2.20;99.90;;;;;;5111765;28;20369;-70
2022/12/11 05:58:43;;;;;;;24.45;13.35;;;-2.30;99.90;;;;;;5103441;28;20032;-70
2022/12/11 06:01:15;;;;;;;23.38;12.50;;;-2.50;99.90;;;;;;5107000;28;20050;-70
2022/12/11 06:03:41;;;;;;;23.67;12.40;;;-2.50;99.90;;;;;;5113510;28;20103;-70
2022/12/11 06:06:08;;;;;;;25.58;13.75;;;-2.60;99.90;;;;;;5109079;28;20031;-71
2022/12/11 06:08:33;;;;;;;25.38;14.35;;;-2.70;99.90;;;;;;5100850;28;20480;-70
2022/12/11 06:10:59;;;;;;;25.13;13.55;;;-2.70;99.90;;;;;;5093755;28;20038;-70
2022/12/11 06:13:25;;;;;;;27.92;14.77;;;-2.80;99.90;;;;;;5092029;28;20034;-70
2022/12/11 06:15:50;;;;;;;29.30;15.38;;;-2.80;99.90;;;;;;5094166;28;20023;-70
2022/12/11 06:18:16;;;;;;;28.83;15.65;;;-2.90;99.90;;;;;;5109344;28;20028;-72
2022/12/11 06:20:42;;;;;;;29.38;15.80;;;-3.00;99.90;;;;;;5097934;28;20032;-71
2022/12/11 06:23:08;;;;;;;26.50;14.93;;;-3.00;99.90;;;;;;5110382;28;20112;-70
2022/12/11 06:25:34;;;;;;;30.88;16.35;;;-3.10;99.90;;;;;;5092272;28;20522;-69
2022/12/11 06:27:59;;;;;;;32.80;16.85;;;-3.10;99.90;;;;;;5106488;28;20082;-70
2022/12/11 06:30:25;;;;;;;29.05;16.08;;;-3.20;99.90;;;;;;5099924;28;20425;-69
2022/12/11 06:32:50;;;;;;;27.05;14.88;;;-3.20;99.90;;;;;;5099792;28;20085;-70
2022/12/11 06:35:16;;;;;;;30.98;14.55;;;-3.30;99.90;;;;;;5090832;28;20028;-69
2022/12/11 06:37:42;;;;;;;27.13;14.02;;;-3.30;99.90;;;;;;5103794;28;20476;-70
2022/12/11 06:40:09;;;;;;;27.80;14.82;;;-3.30;99.90;;;;;;5092368;28;20051;-69
2022/12/11 06:42:35;;;;;;;25.52;13.80;;;-3.30;99.90;;;;;;5099682;28;20032;-70
2022/12/11 06:45:00;;;;;;;26.38;14.45;;;-3.30;99.90;;;;;;5106982;28;20024;-70
2022/12/11 06:47:30;;;;;;;27.60;14.50;;;-3.30;99.90;;;;;;5092196;28;20036;-70
2022/12/11 06:49:56;;;;;;;34.20;15.75;;;-3.30;99.90;;;;;;5091799;28;20031;-70
2022/12/11 06:52:23;;;;;;;28.98;15.68;;;-3.40;99.90;;;;;;5096589;28;20027;-70
2022/12/11 06:54:50;;;;;;;27.17;14.68;;;-3.40;99.90;;;;;;5080230;28;20490;-71
2022/12/11 06:57:16;;;;;;;29.33;15.27;;;-3.40;99.90;;;;;;5098158;28;20114;-70
2022/12/11 06:59:42;;;;;;;30.08;16.30;;;-3.40;99.90;;;;;;5098691;28;20039;-71
2022/12/11 07:02:13;;;;;;;35.97;17.67;;;-3.50;99.90;;;;;;5111975;28;20069;-71
2022/12/11 07:04:39;;;;;;;35.47;16.77;;;-3.40;99.90;;;;;;5112282;28;20031;-71
2022/12/11 07:07:04;;;;;;;33.80;17.10;;;-3.40;99.90;;;;;;5109287;28;20027;-71
2022/12/11 07:09:30;;;;;;;32.88;17.42;;;-3.30;99.90;;;;;;5107126;28;20149;-71
2022/12/11 07:11:56;;;;;;;34.45;18.15;;;-3.20;99.90;;;;;;5091392;28;20024;-70
2022/12/11 07:14:21;;;;;;;33.05;16.90;;;-3.10;99.90;;;;;;5090944;28;20473;-70
2022/12/11 07:16:47;;;;;;;32.38;17.25;;;-3.10;99.90;;;;;;5096712;28;20034;-70
2022/12/11 07:19:12;;;;;;;30.52;16.55;;;-3.10;99.90;;;;;;5110632;28;20385;-70
2022/12/11 07:21:38;;;;;;;31.08;16.33;;;-3.10;99.90;;;;;;5111332;28;20031;-70
2022/12/11 07:24:04;;;;;;;36.10;17.50;;;-3.00;99.90;;;;;;5107376;28;20134;-70
2022/12/11 07:26:30;;;;;;;33.85;18.27;;;-3.00;99.90;;;;;;5099892;28;20035;-71
2022/12/11 07:28:57;;;;;;;36.63;19.48;;;-3.00;99.90;;;;;;5105961;28;20035;-70
2022/12/11 07:31:24;;;;;;;33.80;17.85;;;-2.90;99.90;;;;;;5096572;28;20074;-70
2022/12/11 07:33:54;;;;;;;37.70;19.15;;;-2.90;99.90;;;;;;5095003;28;20485;-70
2022/12/11 07:36:20;;;;;;;34.47;19.00;;;-2.80;99.90;;;;;;5072115;28;20055;-69
2022/12/11 07:38:46;;;;;;;34.15;18.38;;;-2.80;99.90;;;;;;5101192;28;20063;-70
2022/12/11 07:41:13;;;;;;;38.08;19.08;;;-2.70;99.90;;;;;;5110462;28;20440;-70
2022/12/11 07:43:40;;;;;;;33.45;17.27;;;-2.70;99.90;;;;;;5075854;28;20028;-70
2022/12/11 07:46:13;;;;;;;36.60;18.92;;;-2.60;99.90;;;;;;5097602;28;20066;-70
2022/12/11 07:48:40;;;;;;;39.00;19.85;;;-2.60;99.90;;;;;;5103061;28;20031;-70
2022/12/11 07:51:09;;;;;;;35.53;18.83;;;-2.50;99.90;;;;;;5111250;28;20100;-69
2022/12/11 07:53:35;;;;;;;35.25;19.27;;;-2.50;99.90;;;;;;5110509;28;20527;-70
2022/12/11 07:56:01;;;;;;;37.90;19.00;;;-2.40;99.90;;;;;;5111488;28;20057;-71
2022/12/11 07:58:27;;;;;;;36.03;19.38;;;-2.30;99.90;;;;;;5094396;28;20047;-72
2022/12/11 08:00:52;;;;;;;35.03;17.98;;;-2.20;99.90;;;;;;5103466;28;20039;-70
2022/12/11 08:03:18;;;;;;;34.75;18.63;;;-2.10;99.90;;;;;;5090462;28;20606;-72
2022/12/11 08:05:50;;;;;;;32.50;16.55;;;-2.00;99.90;;;;;;5096316;28;20046;-70
2022/12/11 08:08:17;;;;;;;32.17;18.08;;;-1.90;99.90;;;;;;5097970;28;20059;-70
2022/12/11 08:10:43;;;;;;;33.75;17.88;;;-1.70;99.90;;;;;;5098612;28;20080;-70
2022/12/11 08:13:08;;;;;;;30.75;17.38;;;-1.70;99.90;;;;;;5095446;28;20111;-70
2022/12/11 08:15:34;;;;;;;31.33;17.40;;;-1.60;99.90;;;;;;5098957;28;20027;-69
2022/12/11 08:18:00;;;;;;;33.47;17.25;;;-1.50;99.90;;;;;;5095645;28;20028;-73
2022/12/11 08:20:25;;;;;;;30.08;15.73;;;-1.40;99.90;;;;;;5097731;28;20471;-71
2022/12/11 08:22:51;;;;;;;28.45;15.40;;;-1.30;99.90;;;;;;5103007;28;20089;-71
2022/12/11 08:25:17;;;;;;;27.63;15.27;;;-1.20;99.90;;;;;;5092975;28;20028;-72
2022/12/11 08:27:42;;;;;;;28.15;14.38;;;-1.10;99.90;;;;;;5098783;28;20074;-69
2022/12/11 08:30:09;;;;;;;28.52;14.98;;;-1.00;99.90;;;;;;5095656;28;20015;-70
2022/12/11 08:32:34;;;;;;;26.67;13.65;;;-0.90;99.90;;;;;;5097616;28;20480;-71
2022/12/11 08:35:00;;;;;;;29.08;15.18;;;-0.90;99.90;;;;;;5096661;28;20023;-70
2022/12/11 08:37:26;;;;;;;28.63;14.90;;;-0.90;99.90;;;;;;5094514;28;20142;-71
2022/12/11 08:39:51;;;;;;;27.65;15.10;;;-0.80;99.90;;;;;;5095210;28;20053;-70
2022/12/11 08:42:17;;;;;;;23.17;13.68;;;-0.90;99.90;;;;;;5104197;28;20043;-72
2022/12/11 08:44:43;;;;;;;27.27;15.55;;;-0.90;99.90;;;;;;5102249;28;20038;-71
2022/12/11 08:47:08;;;;;;;29.80;15.02;;;-0.90;99.90;;;;;;5098122;28;20077;-73
2022/12/11 08:49:35;;;;;;;30.70;15.57;;;-0.90;99.90;;;;;;5101929;28;20062;-73
2022/12/11 08:52:02;;;;;;;28.63;15.38;;;-0.90;99.90;;;;;;5105473;28;20214;-72
2022/12/11 08:54:28;;;;;;;23.77;13.90;;;-0.90;99.90;;;;;;5095783;28;20354;-73
2022/12/11 08:56:53;;;;;;;25.35;14.88;;;-0.70;99.90;;;;;;5096305;28;20027;-72
2022/12/11 08:59:19;;;;;;;21.52;12.77;;;-0.70;99.90;;;;;;5097723;28;20469;-73
2022/12/11 09:01:45;;;;;;;26.63;13.90;;;-0.70;99.90;;;;;;5107384;28;20024;-72
2022/12/11 09:04:10;;;;;;;26.55;14.35;;;-0.70;99.90;;;;;;5099080;28;20445;-72
2022/12/11 09:06:36;;;;;;;25.10;13.50;;;-0.70;99.90;;;;;;5094585;28;20500;-70
2022/12/11 09:09:03;;;;;;;24.63;14.10;;;-0.80;99.90;;;;;;5100599;28;20468;-72
2022/12/11 09:11:31;;;;;;;24.33;13.38;;;-0.90;99.90;;;;;;5109640;28;20803;-70
2022/12/11 09:13:58;;;;;;;25.38;13.50;;;-0.90;99.90;;;;;;5096926;28;20116;-72
2022/12/11 09:16:25;;;;;;;25.80;14.07;;;-0.90;99.90;;;;;;5099827;28;20043;-70
2022/12/11 09:18:53;;;;;;;23.00;13.35;;;-0.80;99.90;;;;;;5098231;28;20036;-68
2022/12/11 09:21:21;;;;;;;26.27;15.05;;;-0.80;99.90;;;;;;5097593;28;20107;-71
2022/12/11 09:23:47;;;;;;;28.35;15.10;;;-0.70;99.90;;;;;;5103426;28;20024;-71
2022/12/11 09:26:16;;;;;;;25.88;14.73;;;-0.70;99.90;;;;;;5095551;28;20433;-70
2022/12/11 09:28:42;;;;;;;22.98;13.82;;;-0.60;99.90;;;;;;5084142;28;20040;-74
2022/12/11 09:31:16;;;;;;;25.73;15.65;;;-0.60;99.90;;;;;;5111144;28;20035;-73
2022/12/11 09:33:42;;;;;;;31.55;17.17;;;-0.50;99.90;;;;;;5097266;28;20478;-73
2022/12/11 09:36:08;;;;;;;28.17;17.10;;;-0.50;99.90;;;;;;5095605;28;20028;-72
2022/12/11 09:38:35;;;;;;;29.83;17.25;;;-0.40;99.90;;;;;;5105162;28;20032;-75
2022/12/11 09:41:01;;;;;;;29.45;17.15;;;-0.40;99.90;;;;;;5101381;28;20046;-74
2022/12/11 09:43:30;;;;;;;29.60;15.82;;;-0.30;99.90;;;;;;5097163;28;20082;-76
2022/12/11 09:45:56;;;;;;;29.42;16.52;;;-0.20;99.90;;;;;;5098746;28;20055;-72
2022/12/11 09:48:24;;;;;;;29.10;16.42;;;-0.10;99.90;;;;;;5106153;28;20104;-73
2022/12/11 09:50:52;;;;;;;29.30;16.23;;;0.00;99.90;;;;;;5101432;28;20059;-70
2022/12/11 09:53:28;;;;;;;30.10;15.73;;;0.00;99.90;;;;;;5092039;28;20028;-71
2022/12/11 09:56:16;;;;;;;26.45;15.95;;;0.10;99.90;;;;;;5093492;28;20461;-71
2022/12/11 09:58:51;;;;;;;29.05;16.52;;;0.40;99.90;;;;;;5091908;28;20024;-71
2022/12/11 10:01:48;;;;;;;26.30;15.57;;;0.50;99.90;;;;;;5091837;28;20538;-71
2022/12/11 10:04:48;;;;;;;25.00;14.85;;;0.60;99.90;;;;;;5092228;28;20036;-71
2022/12/11 10:07:25;;;;;;;;;;;0.60;99.90;;;;;;5099478;28;20027;-71
2022/12/11 10:10:16;;;;;;;24.45;14.00;;;0.70;99.90;;;;;;5113229;28;20275;-71
2022/12/11 10:12:57;;;;;;;28.52;15.77;;;0.70;99.90;;;;;;5112457;28;20485;-71
2022/12/11 10:15:24;;;;;;;29.52;16.90;;;0.80;99.90;;;;;;5105550;28;20381;-71
2022/12/11 10:17:52;;;;;;;26.17;15.93;;;0.90;99.90;;;;;;5076714;28;20040;-71
2022/12/11 10:20:29;;;;;;;26.75;15.45;;;0.90;99.90;;;;;;5091984;28;20477;-73
2022/12/11 10:22:56;;;;;;;28.38;16.20;;;0.90;99.90;;;;;;5099630;28;20031;-73
2022/12/11 10:25:36;;;;;;;30.05;16.85;;;0.90;99.90;;;;;;5093462;28;20469;-71
2022/12/11 10:28:13;;;;;;;27.83;16.30;;;0.90;99.90;;;;;;5108785;28;20051;-71
2022/12/11 10:30:46;;;;;;;33.75;18.75;;;0.80;99.90;;;;;;5108314;28;20032;-71
2022/12/11 10:33:41;;;;;;;31.60;18.17;;;0.80;99.90;;;;;;5095752;28;20491;-72
2022/12/11 10:36:09;;;;;;;30.40;16.58;;;0.70;99.90;;;;;;5080548;28;20032;-69
2022/12/11 10:38:41;;;;;;;28.88;16.88;;;0.70;99.90;;;;;;5109484;28;20032;-70
2022/12/11 10:41:17;;;;;;;29.92;17.25;;;0.80;99.90;;;;;;5102189;28;20085;-70
2022/12/11 10:43:46;;;;;;;28.05;16.92;;;0.80;99.90;;;;;;5113351;28;20042;-68
2022/12/11 10:46:25;;;;;;;26.63;16.02;;;0.90;99.90;;;;;;5109334;28;20016;-72
2022/12/11 10:48:54;;;;;;;27.85;16.27;;;1.00;99.90;;;;;;5104203;28;20066;-71
2022/12/11 10:51:38;;;;;;;29.60;16.63;;;1.00;99.90;;;;;;5110687;28;20023;-73
2022/12/11 10:54:23;;;;;;;29.35;17.15;;;1.00;99.90;;;;;;5107041;28;20099;-69
2022/12/11 10:56:50;;;;;;;30.08;16.60;;;1.00;99.90;;;;;;5108077;28;20036;-73
2022/12/11 10:59:24;;;;;;;28.08;16.70;;;1.00;99.90;;;;;;5092096;28;20036;-72
2022/12/11 11:01:50;;;;;;;30.13;16.13;;;1.00;99.90;;;;;;5099521;28;20027;-71
2022/12/11 11:04:26;;;;;;;29.85;17.38;;;0.90;99.90;;;;;;5109053;28;20042;-71
2022/12/11 11:07:13;;;;;;;26.27;15.35;;;0.90;99.90;;;;;;5100939;28;20031;-73
2022/12/11 11:09:39;;;;;;;28.17;16.35;;;0.90;99.90;;;;;;5105266;28;20024;-71
2022/12/11 11:12:26;;;;;;;29.15;17.67;;;1.00;99.90;;;;;;5091542;28;20472;-72
2022/12/11 11:15:00;;;;;;;27.33;16.85;;;1.00;99.90;;;;;;5100099;28;20071;-68
2022/12/11 11:17:26;;;;;;;28.80;16.83;;;1.10;99.90;;;;;;5092035;28;20044;-67
2022/12/11 11:19:52;;;;;;;28.48;16.98;;;1.10;99.90;;;;;;5102707;28;20023;-68
2022/12/11 11:22:18;;;;;;;28.40;16.55;;;1.10;99.90;;;;;;5106142;28;20357;-68
2022/12/11 11:24:56;;;;;;;26.73;16.02;;;1.10;99.90;;;;;;5103370;28;20020;-67
2022/12/11 11:27:44;;;;;;;28.10;17.30;;;1.20;99.90;;;;;;5082962;28;20051;-68
2022/12/11 11:30:26;;;;;;;26.80;14.75;;;1.20;99.90;;;;;;5078087;28;20389;-71
2022/12/11 11:32:55;;;;;;;23.98;14.70;;;1.20;99.90;;;;;;5051950;28;20397;-69
2022/12/11 11:35:26;;;;;;;30.25;17.98;;;1.30;99.90;;;;;;5075912;28;20033;-70
2022/12/11 11:37:57;;;;;;;28.83;17.63;;;1.40;99.90;;;;;;5081610;28;20108;-69
2022/12/11 11:40:35;;;;;;;30.65;17.20;;;1.50;99.90;;;;;;5085699;28;20083;-69
2022/12/11 11:43:42;;;;;;;28.13;17.08;;;1.50;99.90;;;;;;5079126;28;20024;-69
2022/12/11 11:46:17;;;;;;;30.88;17.05;;;1.60;99.90;;;;;;5073715;28;20036;-68
2022/12/11 11:49:05;;;;;;;29.17;16.38;;;1.60;99.90;;;;;;5083150;28;20098;-69
2022/12/11 11:51:36;;;;;;;30.75;17.17;;;1.50;99.90;;;;;;5079557;28;20655;-68
2022/12/11 11:54:24;;;;;;;29.38;17.08;;;1.40;99.90;;;;;;5079239;28;20028;-67
2022/12/11 11:56:52;;;;;;;29.40;17.05;;;1.40;99.90;;;;;;5073803;28;20032;-70
2022/12/11 11:59:35;;;;;;;28.67;16.48;;;1.30;99.90;;;;;;5083958;28;20567;-71
2022/12/11 12:02:00;;;;;;;31.63;17.48;;;1.30;99.90;;;;;;5077349;28;20120;-69
2022/12/11 12:04:35;;;;;;;28.17;16.10;;;1.40;99.90;;;;;;5082819;28;20024;-71
2022/12/11 12:07:39;;;;;;;25.73;15.55;;;1.40;99.90;;;;;;5078916;28;20108;-70
2022/12/11 12:10:21;;;;;;;26.70;15.32;;;1.40;99.90;;;;;;5073849;28;20485;-69
2022/12/11 12:12:56;;;;;;;29.77;16.85;;;1.40;99.90;;;;;;5085625;28;20033;-79
2022/12/11 12:15:42;;;;;;;24.83;14.43;;;1.40;99.90;;;;;;5082196;28;20089;-69
2022/12/11 12:18:24;;;;;;;27.95;16.90;;;1.40;99.90;;;;;;5084043;28;20028;-68
2022/12/11 12:21:01;;;;;;;28.73;16.90;;;1.40;99.90;;;;;;5078972;28;20040;-68
2022/12/11 12:23:42;;;;;;;31.13;17.13;;;1.40;99.90;;;;;;5084337;28;20051;-69
2022/12/11 12:29:19;;;;;;;28.90;16.58;;;1.20;99.90;;;;;;5062083;28;20807;-69
2022/12/11 12:32:14;;;;;;;26.73;15.52;;;1.10;99.90;;;;;;5048766;28;20029;-71
2022/12/11 12:34:46;;;;;;;30.30;16.83;;;1.00;99.90;;;;;;5038277;28;20029;-73
2022/12/11 12:37:50;;;;;;;27.85;15.60;;;0.80;99.90;;;;;;5050806;28;20025;-72
2022/12/11 12:40:24;;;;;;;33.53;18.42;;;0.70;99.90;;;;;;5042119;28;20046;-69
2022/12/11 12:42:53;;;;;;;32.88;17.83;;;0.60;99.90;;;;;;5047837;28;20478;-68
2022/12/11 12:45:35;;;;;;;32.78;18.25;;;0.50;99.90;;;;;;5046349;28;20112;-71
2022/12/11 12:48:01;;;;;;;34.20;18.67;;;0.50;99.90;;;;;;5044396;28;20065;-73
2022/12/11 12:50:37;;;;;;;33.47;18.58;;;0.50;99.90;;;;;;5049232;28;20064;-74
2022/12/11 12:53:05;;;;;;;32.15;17.83;;;0.40;99.90;;;;;;5041615;28;20026;-74
2022/12/11 12:55:32;;;;;;;34.15;18.33;;;0.40;99.90;;;;;;5047525;28;20037;-73
2022/12/11 12:58:04;;;;;;;32.45;17.45;;;0.40;99.90;;;;;;5054810;28;20107;-75